createdAt,value
2018-05-18T00:00:10.778Z,35.13
2018-05-18T00:01:10.726Z,35.03
2018-05-18T00:02:10.797Z,35.13
2018-05-18T00:03:10.659Z,35.69
2018-05-18T00:04:10.625Z,36.05
2018-05-18T00:05:10.640Z,35.88
2018-05-18T00:06:10.536Z,35.41
2018-05-18T00:07:10.572Z,35.71
2018-05-18T00:08:10.499Z,35.90
2018-05-18T00:09:10.416Z,35.52
2018-05-18T00:10:10.424Z,35.60
2018-05-18T00:11:10.474Z,35.79
2018-05-18T00:12:10.365Z,35.42
2018-05-18T00:13:10.260Z,35.71
2018-05-18T00:14:10.218Z,35.90
2018-05-18T00:15:10.239Z,35.61
2018-05-18T00:16:10.136Z,36.00
2018-05-18T00:17:10.125Z,35.81
2018-05-18T00:18:10.084Z,35.90
2018-05-18T00:19:10.069Z,36.09
2018-05-18T00:20:09.988Z,35.90
2018-05-18T00:21:09.969Z,36.09
2018-05-18T00:22:09.899Z,36.19
2018-05-18T00:23:09.865Z,36.19
2018-05-18T00:24:09.844Z,36.00
2018-05-18T00:25:09.786Z,36.09
2018-05-18T00:26:09.816Z,36.28
2018-05-18T00:27:09.721Z,36.19
2018-05-18T00:28:09.659Z,36.28
2018-05-18T00:29:09.635Z,36.38
2018-05-18T00:30:09.591Z,36.28
2018-05-18T00:31:09.556Z,36.38
2018-05-18T00:32:09.540Z,36.76
2018-05-18T00:33:09.571Z,36.76
2018-05-18T00:34:09.440Z,36.58
2018-05-18T00:35:09.525Z,36.49
2018-05-18T00:36:10.179Z,36.21
2018-05-18T00:37:09.313Z,36.58
2018-05-18T00:38:09.282Z,36.49
2018-05-18T00:39:09.221Z,36.49
2018-05-18T00:40:09.210Z,36.68
2018-05-18T00:41:09.152Z,36.77
2018-05-18T00:42:09.124Z,36.77
2018-05-18T00:43:09.087Z,36.87
2018-05-18T00:44:09.084Z,36.87
2018-05-18T00:45:08.995Z,36.77
2018-05-18T00:46:08.987Z,37.06
2018-05-18T00:47:08.989Z,36.96
2018-05-18T00:48:08.904Z,37.06
2018-05-18T00:49:08.867Z,37.15
2018-05-18T00:50:08.819Z,37.15
2018-05-18T00:51:08.872Z,37.44
2018-05-18T00:52:08.723Z,37.35
2018-05-18T00:53:08.722Z,37.25
2018-05-18T00:54:08.671Z,37.44
2018-05-18T00:55:08.617Z,37.54
2018-05-18T00:56:08.585Z,37.54
2018-05-18T00:57:08.563Z,37.63
2018-05-18T00:58:08.571Z,37.73
2018-05-18T00:59:08.535Z,37.73
2018-05-18T01:00:08.460Z,37.63
2018-05-18T01:01:08.475Z,37.65
2018-05-18T01:02:08.361Z,37.92
2018-05-18T01:03:44.285Z,37.93
2018-05-18T01:04:08.280Z,37.93
2018-05-18T01:05:08.212Z,38.22
2018-05-18T01:06:08.179Z,38.12
2018-05-18T01:07:08.167Z,38.22
2018-05-18T01:08:08.175Z,38.41
2018-05-18T01:09:08.070Z,38.79
2018-05-18T01:10:08.033Z,39.93
2018-05-18T01:11:08.004Z,40.31
2018-05-18T01:12:07.961Z,40.98
2018-05-18T01:13:28.986Z,41.26
2018-05-18T01:14:07.892Z,41.83
2018-05-18T01:15:07.840Z,42.60
2018-05-18T01:16:07.802Z,42.79
2018-05-18T01:17:08.696Z,43.26
2018-05-18T01:18:07.720Z,43.45
2018-05-18T01:19:07.780Z,43.93
2018-05-18T01:20:07.645Z,44.49
2018-05-18T01:21:07.605Z,44.78
2018-05-18T01:22:07.576Z,45.26
2018-05-18T01:23:28.553Z,45.45
2018-05-18T01:24:07.556Z,45.64
2018-05-18T01:25:08.193Z,45.83
2018-05-18T01:26:07.520Z,46.49
2018-05-18T01:27:07.421Z,46.97
2018-05-18T01:28:07.377Z,46.59
2018-05-18T01:29:07.300Z,46.78
2018-05-18T01:30:07.271Z,47.25
2018-05-18T01:31:07.245Z,47.25
2018-05-18T01:32:07.215Z,47.37
2018-05-18T01:33:07.154Z,48.13
2018-05-18T01:34:07.103Z,48.01
2018-05-18T01:35:07.094Z,47.85
2018-05-18T01:36:07.025Z,48.32
2018-05-18T01:37:07.013Z,48.32
2018-05-18T01:38:06.990Z,48.03
2018-05-18T01:39:06.942Z,48.13
2018-05-18T01:40:06.879Z,48.21
2018-05-18T01:41:06.852Z,48.13
2018-05-18T01:42:06.801Z,48.42
2018-05-18T01:43:06.779Z,48.23
2018-05-18T01:44:06.742Z,48.13
2018-05-18T01:45:06.693Z,48.13
2018-05-18T01:46:06.742Z,48.23
2018-05-18T01:47:06.627Z,48.13
2018-05-18T01:48:06.622Z,48.03
2018-05-18T01:49:07.207Z,48.32
2018-05-18T01:50:06.496Z,48.13
2018-05-18T01:51:06.471Z,48.13
2018-05-18T01:52:06.426Z,48.13
2018-05-18T01:53:06.395Z,48.23
2018-05-18T01:54:06.366Z,48.23
2018-05-18T01:55:06.332Z,48.23
2018-05-18T01:56:06.286Z,48.13
2018-05-18T01:57:06.239Z,48.13
2018-05-18T01:58:06.215Z,48.13
2018-05-18T01:59:06.156Z,48.23
2018-05-18T02:00:06.185Z,48.23
2018-05-18T02:01:06.081Z,48.32
2018-05-18T02:02:06.066Z,48.23
2018-05-18T02:03:06.007Z,48.32
2018-05-18T02:04:06.030Z,48.23
2018-05-18T02:05:05.941Z,48.23
2018-05-18T02:06:05.893Z,48.13
2018-05-18T02:07:05.969Z,48.13
2018-05-18T02:08:05.826Z,48.13
2018-05-18T02:09:05.839Z,48.23
2018-05-18T02:10:05.764Z,48.13
2018-05-18T02:11:06.200Z,48.32
2018-05-18T02:12:05.723Z,48.23
2018-05-18T02:13:05.639Z,48.23
2018-05-18T02:14:05.651Z,48.03
2018-05-18T02:15:05.605Z,48.13
2018-05-18T02:16:05.542Z,48.13
2018-05-18T02:17:05.571Z,48.03
2018-05-18T02:18:05.444Z,48.03
2018-05-18T02:19:05.419Z,48.03
2018-05-18T02:20:05.424Z,48.23
2018-05-18T02:21:05.371Z,48.03
2018-05-18T02:22:05.317Z,48.13
2018-05-18T02:23:05.246Z,48.13
2018-05-18T02:24:05.221Z,48.13
2018-05-18T02:25:05.250Z,48.13
2018-05-18T02:26:05.155Z,48.23
2018-05-18T02:27:05.187Z,48.23
2018-05-18T02:28:05.110Z,48.32
2018-05-18T02:29:05.047Z,48.42
2018-05-18T02:30:05.063Z,48.03
2018-05-18T02:31:04.957Z,48.13
2018-05-18T02:32:04.925Z,48.23
2018-05-18T02:33:04.889Z,48.23
2018-05-18T02:34:04.865Z,48.42
2018-05-18T02:35:04.814Z,48.42
2018-05-18T02:36:04.923Z,48.32
2018-05-18T02:37:04.742Z,48.42
2018-05-18T02:38:04.714Z,48.51
2018-05-18T02:39:04.672Z,48.42
2018-05-18T02:40:04.647Z,48.42
2018-05-18T02:41:04.593Z,48.51
2018-05-18T02:42:04.552Z,48.61
2018-05-18T02:43:04.512Z,48.71
2018-05-18T02:44:04.485Z,48.80
2018-05-18T02:45:04.445Z,48.80
2018-05-18T02:46:04.406Z,48.82
2018-05-18T02:47:04.357Z,48.90
2018-05-18T02:48:04.339Z,48.61
2018-05-18T02:49:04.311Z,48.90
2018-05-18T02:50:04.262Z,49.27
2018-05-18T02:51:04.219Z,49.27
2018-05-18T02:52:04.291Z,49.27
2018-05-18T02:53:04.134Z,49.27
2018-05-18T02:54:04.102Z,49.08
2018-05-18T02:55:04.068Z,49.08
2018-05-18T02:56:04.026Z,49.08
2018-05-18T02:57:03.999Z,49.08
2018-05-18T02:58:03.967Z,49.20
2018-05-18T02:59:03.901Z,49.56
2018-05-18T03:00:03.935Z,49.77
2018-05-18T03:01:03.833Z,49.58
2018-05-18T03:02:03.800Z,49.49
2018-05-18T03:03:03.769Z,49.49
2018-05-18T03:04:03.722Z,49.49
2018-05-18T03:05:03.690Z,49.58
2018-05-18T03:06:03.659Z,49.40
2018-05-18T03:07:03.771Z,49.49
2018-05-18T03:08:03.565Z,49.77
2018-05-18T03:09:03.544Z,49.77
2018-05-18T03:10:03.553Z,49.77
2018-05-18T03:11:03.468Z,49.77
2018-05-18T03:12:03.444Z,49.96
2018-05-18T03:13:03.403Z,50.15
2018-05-18T03:14:03.422Z,50.25
2018-05-18T03:15:03.311Z,50.06
2018-05-18T03:16:03.269Z,50.15
2018-05-18T03:17:03.238Z,50.44
2018-05-18T03:18:03.225Z,50.54
2018-05-18T03:19:03.214Z,50.63
2018-05-18T03:20:03.162Z,50.25
2018-05-18T03:21:03.123Z,51.10
2018-05-18T03:22:03.060Z,56.05
2018-05-18T03:23:03.023Z,57.67
2018-05-18T03:24:02.993Z,58.44
2018-05-18T03:25:02.975Z,59.20
2018-05-18T03:26:02.947Z,59.96
2018-05-18T03:27:02.887Z,60.72
2018-05-18T03:28:02.924Z,61.86
2018-05-18T03:29:02.800Z,61.77
2018-05-18T03:30:02.766Z,62.53
2018-05-18T03:31:02.716Z,63.01
2018-05-18T03:32:02.741Z,63.29
2018-05-18T03:33:02.646Z,63.67
2018-05-18T03:34:02.604Z,64.43
2018-05-18T03:35:02.571Z,64.72
2018-05-18T03:36:02.543Z,65.10
2018-05-18T03:37:02.538Z,65.67
2018-05-18T03:38:02.501Z,65.77
2018-05-18T03:39:02.412Z,65.95
2018-05-18T03:40:02.413Z,65.95
2018-05-18T03:41:02.371Z,66.43
2018-05-18T03:42:02.334Z,66.33
2018-05-18T03:43:02.287Z,66.62
2018-05-18T03:44:02.242Z,66.72
2018-05-18T03:45:02.250Z,66.81
2018-05-18T03:46:02.172Z,67.38
2018-05-18T03:47:02.145Z,67.47
2018-05-18T03:48:02.084Z,67.57
2018-05-18T03:49:02.053Z,68.05
2018-05-18T03:50:02.023Z,68.15
2018-05-18T03:51:01.975Z,67.57
2018-05-18T03:52:02.042Z,68.52
2018-05-18T03:53:01.912Z,68.24
2018-05-18T03:54:01.885Z,68.52
2018-05-18T03:55:01.836Z,68.43
2018-05-18T03:56:01.811Z,68.71
2018-05-18T03:57:01.765Z,69.67
2018-05-18T03:58:01.709Z,68.90
2018-05-18T03:59:01.670Z,70.33
2018-05-18T04:00:01.647Z,69.85
2018-05-18T04:01:01.617Z,70.33
2018-05-18T04:02:01.569Z,70.90
2018-05-18T04:03:01.534Z,71.38
2018-05-18T04:04:01.528Z,71.95
2018-05-18T04:05:01.481Z,72.52
2018-05-18T04:06:01.465Z,72.52
2018-05-18T04:07:01.417Z,73.10
2018-05-18T04:08:01.399Z,73.38
2018-05-18T04:09:01.307Z,75.19
2018-05-18T04:10:01.435Z,76.04
2018-05-18T04:11:01.281Z,76.04
2018-05-18T04:12:01.214Z,76.42
2018-05-18T04:13:01.185Z,76.90
2018-05-18T04:14:01.147Z,77.09
2018-05-18T04:15:01.122Z,78.23
2018-05-18T04:16:01.097Z,78.71
2018-05-18T04:17:00.986Z,79.38
2018-05-18T04:18:01.000Z,79.47
2018-05-18T04:19:01.055Z,80.04
2018-05-18T04:20:00.921Z,80.61
2018-05-18T04:21:00.879Z,80.71
2018-05-18T04:22:00.817Z,81.56
2018-05-18T04:23:00.816Z,82.51
2018-05-18T04:24:00.740Z,83.37
2018-05-18T04:25:00.700Z,85.08
2018-05-18T04:26:00.654Z,87.37
2018-05-18T04:27:00.703Z,88.89
2018-05-18T04:28:00.627Z,91.27
2018-05-18T04:29:00.571Z,92.51
2018-05-18T04:30:00.578Z,94.51
2018-05-18T04:31:00.510Z,96.31
2018-05-18T04:32:00.477Z,98.60
2018-05-18T04:33:00.417Z,99.99
2018-05-18T04:34:00.370Z,99.99
2018-05-18T04:35:00.371Z,99.99
2018-05-18T04:36:00.394Z,99.99
2018-05-18T04:37:00.293Z,99.99
2018-05-18T04:38:00.243Z,99.99
2018-05-18T04:39:00.190Z,99.99
2018-05-18T04:40:00.189Z,99.99
2018-05-18T04:41:00.135Z,99.99
2018-05-18T04:42:00.145Z,99.99
2018-05-18T04:43:00.044Z,99.99
2018-05-18T04:44:00.048Z,99.99
2018-05-18T04:45:00.030Z,99.99
2018-05-18T04:45:59.959Z,99.99
2018-05-18T04:46:59.914Z,99.99
2018-05-18T04:47:59.850Z,99.99
2018-05-18T04:48:59.851Z,99.99
2018-05-18T04:49:59.893Z,99.99
2018-05-18T04:50:59.768Z,99.99
2018-05-18T04:51:59.728Z,99.99
2018-05-18T04:52:59.680Z,99.99
2018-05-18T04:53:59.667Z,99.99
2018-05-18T04:54:59.629Z,99.99
2018-05-18T04:55:59.603Z,99.99
2018-05-18T04:56:59.530Z,99.99
2018-05-18T04:57:59.487Z,99.99
2018-05-18T04:58:59.480Z,99.99
2018-05-18T04:59:59.423Z,99.99
2018-05-18T05:00:59.383Z,99.99
2018-05-18T05:01:59.353Z,99.99
2018-05-18T05:02:59.296Z,99.99
2018-05-18T05:03:59.277Z,99.99
2018-05-18T05:04:59.272Z,99.99
2018-05-18T05:05:59.216Z,99.99
2018-05-18T05:06:59.167Z,99.99
2018-05-18T05:07:59.134Z,99.99
2018-05-18T05:08:59.079Z,99.99
2018-05-18T05:09:59.057Z,99.99
2018-05-18T05:10:59.033Z,99.99
2018-05-18T05:11:59.017Z,99.99
2018-05-18T05:12:59.760Z,99.99
2018-05-18T05:13:58.958Z,99.99
2018-05-18T05:14:58.870Z,99.99
2018-05-18T05:15:58.828Z,99.99
2018-05-18T05:16:58.800Z,99.99
2018-05-18T05:17:58.799Z,99.99
2018-05-18T05:18:58.734Z,99.99
2018-05-18T05:19:59.244Z,99.99
2018-05-18T05:20:58.654Z,99.99
2018-05-18T05:21:58.617Z,99.99
2018-05-18T05:22:58.588Z,99.99
2018-05-18T05:23:58.528Z,99.99
2018-05-18T05:24:58.490Z,99.99
2018-05-18T05:25:58.448Z,99.99
2018-05-18T05:26:58.427Z,99.99
2018-05-18T05:27:58.430Z,99.99
2018-05-18T05:28:58.361Z,99.99
2018-05-18T05:29:58.300Z,99.99
2018-05-18T05:30:58.276Z,99.99
2018-05-18T05:31:58.285Z,99.99
2018-05-18T05:32:58.219Z,99.99
2018-05-18T05:33:58.190Z,99.99
2018-05-18T05:34:58.144Z,99.99
2018-05-18T05:35:58.078Z,99.99
2018-05-18T05:36:58.076Z,99.99
2018-05-18T05:37:58.019Z,99.99
2018-05-18T05:38:57.991Z,99.99
2018-05-18T05:39:57.927Z,99.99
2018-05-18T05:40:57.900Z,99.99
2018-05-18T05:41:57.876Z,99.99
2018-05-18T05:42:57.830Z,99.99
2018-05-18T05:43:57.787Z,99.99
2018-05-18T05:44:57.759Z,99.99
2018-05-18T05:45:57.725Z,99.99
2018-05-18T05:46:57.748Z,99.99
2018-05-18T05:47:57.654Z,99.99
2018-05-18T05:48:57.632Z,99.99
2018-05-18T05:49:57.564Z,99.99
2018-05-18T05:50:57.521Z,99.99
2018-05-18T05:51:57.502Z,99.99
2018-05-18T05:52:57.557Z,99.99
2018-05-18T05:53:57.437Z,99.99
2018-05-18T05:54:57.395Z,99.99
2018-05-18T05:55:57.373Z,99.99
2018-05-18T05:56:57.324Z,99.99
2018-05-18T05:57:57.295Z,99.99
2018-05-18T05:58:57.261Z,99.99
2018-05-18T05:59:57.218Z,99.99
2018-05-18T06:00:57.268Z,99.99
2018-05-18T06:01:57.145Z,99.99
2018-05-18T06:02:57.757Z,99.99
2018-05-18T06:03:57.067Z,99.99
2018-05-18T06:04:57.059Z,99.99
2018-05-18T06:05:57.082Z,99.99
2018-05-18T06:06:56.966Z,99.99
2018-05-18T06:07:56.932Z,99.99
2018-05-18T06:08:56.888Z,99.99
2018-05-18T06:09:56.861Z,99.99
2018-05-18T06:10:56.810Z,99.99
2018-05-18T06:11:56.769Z,99.99
2018-05-18T06:12:56.760Z,99.99
2018-05-18T06:13:56.695Z,99.99
2018-05-18T06:14:56.671Z,99.99
2018-05-18T06:15:56.635Z,99.99
2018-05-18T06:16:56.586Z,99.99
2018-05-18T06:17:56.561Z,99.99
2018-05-18T06:18:56.526Z,99.99
2018-05-18T06:19:56.505Z,99.99
2018-05-18T06:20:56.482Z,99.99
2018-05-18T06:21:56.398Z,99.99
2018-05-18T06:22:56.363Z,99.99
2018-05-18T06:23:56.340Z,99.99
2018-05-18T06:24:56.323Z,99.99
2018-05-18T06:25:56.305Z,99.99
2018-05-18T06:26:56.237Z,99.99
2018-05-18T06:27:56.213Z,99.99
2018-05-18T06:28:56.141Z,99.99
2018-05-18T06:29:56.115Z,99.99
2018-05-18T06:30:56.067Z,99.99
2018-05-18T06:31:56.031Z,99.99
2018-05-18T06:32:56.030Z,99.99
2018-05-18T06:33:55.971Z,99.99
2018-05-18T06:34:55.998Z,99.99
2018-05-18T06:35:55.938Z,99.99
2018-05-18T06:36:55.848Z,99.99
2018-05-18T06:37:55.827Z,99.99
2018-05-18T06:38:55.826Z,99.99
2018-05-18T06:39:55.749Z,99.99
2018-05-18T06:40:55.761Z,99.99
2018-05-18T06:41:55.761Z,99.99
2018-05-18T06:42:55.634Z,99.99
2018-05-18T06:43:55.595Z,99.99
2018-05-18T06:44:55.555Z,99.99
2018-05-18T06:45:55.525Z,99.99
2018-05-18T06:46:55.633Z,99.99
2018-05-18T06:47:55.464Z,99.99
2018-05-18T06:48:55.413Z,99.99
2018-05-18T06:49:55.445Z,99.99
2018-05-18T06:50:55.350Z,99.99
2018-05-18T06:51:55.309Z,99.99
2018-05-18T06:52:55.290Z,99.99
2018-05-18T06:53:55.237Z,99.99
2018-05-18T06:54:55.224Z,99.99
2018-05-18T06:55:55.205Z,99.99
2018-05-18T06:56:55.147Z,99.99
2018-05-18T06:57:55.099Z,99.99
2018-05-18T06:58:55.067Z,99.99
2018-05-18T06:59:55.026Z,99.99
2018-05-18T07:00:55.011Z,99.99
2018-05-18T07:01:54.951Z,99.99
2018-05-18T07:02:54.913Z,99.99
2018-05-18T07:03:54.866Z,99.99
2018-05-18T07:04:54.843Z,99.99
2018-05-18T07:05:54.827Z,99.99
2018-05-18T07:06:54.749Z,99.99
2018-05-18T07:07:54.717Z,99.99
2018-05-18T07:08:54.703Z,99.99
2018-05-18T07:09:54.667Z,99.99
2018-05-18T07:10:54.628Z,99.99
2018-05-18T07:11:54.573Z,99.99
2018-05-18T07:12:54.541Z,99.99
2018-05-18T07:13:54.497Z,99.99
2018-05-18T07:14:54.472Z,99.99
2018-05-18T07:15:54.464Z,99.99
2018-05-18T07:16:54.402Z,99.99
2018-05-18T07:17:54.378Z,99.99
2018-05-18T07:18:55.280Z,99.99
2018-05-18T07:19:54.276Z,99.99
2018-05-18T07:20:54.263Z,99.99
2018-05-18T07:21:54.278Z,99.99
2018-05-18T07:22:54.259Z,99.99
2018-05-18T07:23:54.158Z,99.99
2018-05-18T07:24:54.134Z,99.99
2018-05-18T07:25:54.103Z,99.99
2018-05-18T07:26:54.021Z,99.99
2018-05-18T07:27:54.013Z,99.99
2018-05-18T07:28:53.961Z,99.99
2018-05-18T07:29:54.091Z,99.99
2018-05-18T07:30:53.913Z,99.99
2018-05-18T07:31:53.857Z,99.99
2018-05-18T07:32:53.824Z,99.99
2018-05-18T07:33:53.874Z,99.99
2018-05-18T07:34:53.788Z,99.99
2018-05-18T07:35:53.728Z,99.99
2018-05-18T07:36:53.727Z,99.99
2018-05-18T07:37:53.632Z,99.99
2018-05-18T07:38:53.603Z,99.99
2018-05-18T07:39:53.587Z,99.99
2018-05-18T07:40:53.554Z,99.99
2018-05-18T07:41:53.524Z,99.99
2018-05-18T07:42:53.487Z,99.99
2018-05-18T07:43:53.534Z,99.99
2018-05-18T07:44:53.433Z,99.99
2018-05-18T07:45:53.373Z,99.99
2018-05-18T07:46:53.355Z,99.99
2018-05-18T07:47:53.304Z,99.99
2018-05-18T07:48:53.266Z,99.99
2018-05-18T07:49:53.293Z,99.99
2018-05-18T07:50:53.186Z,99.99
2018-05-18T07:51:53.168Z,99.99
2018-05-18T07:52:53.165Z,99.99
2018-05-18T07:53:53.086Z,99.99
2018-05-18T07:54:53.072Z,99.99
2018-05-18T07:55:53.038Z,99.99
2018-05-18T07:56:52.994Z,99.99
2018-05-18T07:57:53.806Z,99.99
2018-05-18T07:58:52.909Z,99.99
2018-05-18T07:59:52.872Z,99.99
2018-05-18T08:00:52.834Z,99.99
2018-05-18T08:01:52.813Z,99.99
2018-05-18T08:02:52.746Z,99.99
2018-05-18T08:03:52.730Z,99.99
2018-05-18T08:04:52.672Z,99.99
2018-05-18T08:05:52.721Z,99.99
2018-05-18T08:06:52.600Z,99.99
2018-05-18T08:07:52.576Z,99.99
2018-05-18T08:08:52.556Z,99.99
2018-05-18T08:09:52.494Z,99.99
2018-05-18T08:10:52.473Z,99.99
2018-05-18T08:11:52.415Z,99.99
2018-05-18T08:12:52.417Z,99.99
2018-05-18T08:13:52.373Z,99.99
2018-05-18T08:14:52.319Z,99.99
2018-05-18T08:15:52.393Z,99.99
2018-05-18T08:16:52.244Z,99.99
2018-05-18T08:17:52.203Z,99.99
2018-05-18T08:18:52.203Z,99.99
2018-05-18T08:19:52.143Z,99.99
2018-05-18T08:20:52.122Z,99.99
2018-05-18T08:21:52.077Z,99.99
2018-05-18T08:22:52.090Z,99.99
2018-05-18T08:23:51.997Z,99.99
2018-05-18T08:24:52.012Z,99.99
2018-05-18T08:25:51.939Z,99.99
2018-05-18T08:26:51.883Z,99.99
2018-05-18T08:27:51.865Z,99.99
2018-05-18T08:28:51.816Z,99.99
2018-05-18T08:29:51.786Z,99.99
2018-05-18T08:30:51.737Z,99.99
2018-05-18T08:31:51.723Z,99.99
2018-05-18T08:32:51.679Z,99.99
2018-05-18T08:33:51.645Z,99.99
2018-05-18T08:34:51.654Z,99.99
2018-05-18T08:35:51.611Z,99.99
2018-05-18T08:36:51.573Z,99.99
2018-05-18T08:37:51.517Z,99.99
2018-05-18T08:38:51.547Z,99.99
2018-05-18T08:39:51.460Z,99.99
2018-05-18T08:40:51.409Z,99.99
2018-05-18T08:41:51.387Z,99.99
2018-05-18T08:42:51.328Z,99.99
2018-05-18T08:43:51.300Z,99.99
2018-05-18T08:44:51.294Z,99.99
2018-05-18T08:45:51.240Z,99.99
2018-05-18T08:46:51.304Z,99.99
2018-05-18T08:47:51.205Z,99.99
2018-05-18T08:48:51.134Z,99.99
2018-05-18T08:49:51.115Z,99.99
2018-05-18T08:50:51.067Z,99.99
2018-05-18T08:51:51.048Z,99.99
2018-05-18T08:52:51.015Z,99.99
2018-05-18T08:53:50.945Z,99.99
2018-05-18T08:54:50.891Z,99.99
2018-05-18T08:55:50.954Z,99.99
2018-05-18T08:56:50.840Z,99.99
2018-05-18T08:57:50.800Z,99.99
2018-05-18T08:58:50.778Z,99.99
2018-05-18T08:59:50.816Z,99.99
2018-05-18T09:00:50.698Z,99.99
2018-05-18T09:01:50.669Z,99.99
2018-05-18T09:02:50.628Z,99.99
2018-05-18T09:03:50.584Z,99.99
2018-05-18T09:04:50.559Z,99.99
2018-05-18T09:05:50.544Z,99.99
2018-05-18T09:06:50.486Z,99.99
2018-05-18T09:07:50.451Z,99.99
2018-05-18T09:08:50.492Z,99.99
2018-05-18T09:09:50.452Z,99.99
2018-05-18T09:10:50.353Z,99.99
2018-05-18T09:11:50.320Z,99.99
2018-05-18T09:12:50.331Z,99.99
2018-05-18T09:13:50.242Z,99.99
2018-05-18T09:14:50.217Z,99.99
2018-05-18T09:15:50.204Z,99.95
2018-05-18T09:16:50.152Z,99.99
2018-05-18T09:17:50.230Z,99.99
2018-05-18T09:18:50.131Z,99.99
2018-05-18T09:19:50.027Z,99.99
2018-05-18T09:20:50.006Z,99.99
2018-05-18T09:21:49.967Z,99.95
2018-05-18T09:22:49.931Z,98.52
2018-05-18T09:23:49.910Z,99.57
2018-05-18T09:24:49.896Z,99.99
2018-05-18T09:25:49.835Z,99.99
2018-05-18T09:26:49.830Z,99.66
2018-05-18T09:27:49.755Z,97.42
2018-05-18T09:28:49.749Z,96.56
2018-05-18T09:29:50.341Z,96.56
2018-05-18T09:30:49.671Z,98.80
2018-05-18T09:31:49.626Z,95.36
2018-05-18T09:32:49.599Z,94.51
2018-05-18T09:33:49.560Z,94.60
2018-05-18T09:34:49.520Z,96.22
2018-05-18T09:35:49.498Z,93.74
2018-05-18T09:36:49.487Z,94.60
2018-05-18T09:37:49.496Z,94.98
2018-05-18T09:38:49.386Z,96.32
2018-05-18T09:39:49.387Z,95.22
2018-05-18T09:40:49.316Z,96.27
2018-05-18T09:41:49.285Z,96.22
2018-05-18T09:42:49.253Z,93.79
2018-05-18T09:43:49.293Z,95.32
2018-05-18T09:44:49.166Z,94.74
2018-05-18T09:45:49.155Z,96.66
2018-05-18T09:46:49.120Z,94.65
2018-05-18T09:47:49.083Z,93.02
2018-05-18T09:48:49.042Z,93.40
2018-05-18T09:49:49.010Z,92.88
2018-05-18T09:50:49.015Z,94.55
2018-05-18T09:51:48.956Z,94.93
2018-05-18T09:52:48.908Z,95.07
2018-05-18T09:53:48.884Z,94.51
2018-05-18T09:54:48.956Z,95.56
2018-05-18T09:55:48.819Z,96.42
2018-05-18T09:56:48.789Z,95.07
2018-05-18T09:57:48.750Z,96.03
2018-05-18T09:58:48.707Z,98.57
2018-05-18T09:59:48.734Z,96.66
2018-05-18T10:00:48.662Z,96.75
2018-05-18T10:01:48.627Z,95.98
2018-05-18T10:02:48.592Z,95.08
2018-05-18T10:03:48.565Z,96.75
2018-05-18T10:04:48.551Z,97.61
2018-05-18T10:05:48.499Z,96.17
2018-05-18T10:06:48.519Z,96.98
2018-05-18T10:07:48.426Z,97.80
2018-05-18T10:08:48.375Z,96.66
2018-05-18T10:09:48.354Z,95.70
2018-05-18T10:10:48.320Z,93.16
2018-05-18T10:11:48.314Z,93.12
2018-05-18T10:12:48.261Z,95.56
2018-05-18T10:13:48.212Z,95.03
2018-05-18T10:14:48.174Z,95.89
2018-05-18T10:15:48.216Z,94.51
2018-05-18T10:16:48.113Z,93.45
2018-05-18T10:17:48.105Z,92.79
2018-05-18T10:18:48.064Z,92.79
2018-05-18T10:19:48.018Z,93.07
2018-05-18T10:20:47.994Z,93.88
2018-05-18T10:21:47.974Z,91.93
2018-05-18T10:22:47.917Z,92.16
2018-05-18T10:23:47.889Z,93.55
2018-05-18T10:24:47.870Z,92.88
2018-05-18T10:25:47.850Z,94.93
2018-05-18T10:26:47.775Z,92.16
2018-05-18T10:27:47.790Z,91.25
2018-05-18T10:28:47.787Z,92.02
2018-05-18T10:29:47.697Z,93.50
2018-05-18T10:30:47.675Z,90.73
2018-05-18T10:31:47.624Z,92.16
2018-05-18T10:32:47.580Z,91.64
2018-05-18T10:33:47.638Z,91.40
2018-05-18T10:34:47.515Z,94.70
2018-05-18T10:35:47.510Z,91.83
2018-05-18T10:36:47.454Z,91.68
2018-05-18T10:37:47.438Z,90.73
2018-05-18T10:38:47.421Z,91.11
2018-05-18T10:39:47.373Z,88.91
2018-05-18T10:40:47.374Z,90.16
2018-05-18T10:41:47.310Z,89.63
2018-05-18T10:42:47.265Z,91.21
2018-05-18T10:43:47.272Z,90.30
2018-05-18T10:44:47.194Z,90.59
2018-05-18T10:45:47.170Z,90.73
2018-05-18T10:46:47.203Z,87.81
2018-05-18T10:47:47.104Z,84.55
2018-05-18T10:48:47.113Z,85.61
2018-05-18T10:49:47.026Z,85.99
2018-05-18T10:50:47.012Z,84.55
2018-05-18T10:51:46.991Z,84.84
2018-05-18T10:52:46.947Z,86.61
2018-05-18T10:53:46.930Z,86.22
2018-05-18T10:54:46.895Z,86.47
2018-05-18T10:55:46.872Z,88.53
2018-05-18T10:56:46.815Z,87.29
2018-05-18T10:57:46.772Z,87.19
2018-05-18T10:58:46.733Z,87.04
2018-05-18T10:59:46.717Z,85.80
2018-05-18T11:00:46.727Z,88.00
2018-05-18T11:01:46.668Z,87.43
2018-05-18T11:02:46.643Z,87.66
2018-05-18T11:03:46.658Z,86.37
2018-05-18T11:04:46.568Z,88.86
2018-05-18T11:05:46.507Z,85.41
2018-05-18T11:06:46.502Z,86.41
2018-05-18T11:07:46.472Z,87.27
2018-05-18T11:08:46.466Z,87.70
2018-05-18T11:09:46.400Z,84.22
2018-05-18T11:10:46.398Z,86.18
2018-05-18T11:11:46.346Z,86.04
2018-05-18T11:12:46.335Z,87.48
2018-05-18T11:13:46.277Z,85.71
2018-05-18T11:14:46.880Z,85.80
2018-05-18T11:15:46.237Z,88.95
2018-05-18T11:16:46.849Z,86.94
2018-05-18T11:17:46.154Z,87.81
2018-05-18T11:18:46.139Z,85.99
2018-05-18T11:19:46.089Z,88.67
2018-05-18T11:20:46.115Z,88.48
2018-05-18T11:21:46.017Z,85.84
2018-05-18T11:22:46.037Z,86.13
2018-05-18T11:23:45.947Z,87.62
2018-05-18T11:24:45.918Z,88.48
2018-05-18T11:25:45.889Z,85.71
2018-05-18T11:26:45.872Z,85.89
2018-05-18T11:27:45.846Z,88.04
2018-05-18T11:28:45.777Z,87.27
2018-05-18T11:29:45.744Z,88.23
2018-05-18T11:30:45.741Z,86.94
2018-05-18T11:31:46.358Z,86.51
2018-05-18T11:32:45.674Z,87.18
2018-05-18T11:33:45.635Z,84.88
2018-05-18T11:34:45.594Z,86.61
2018-05-18T11:35:45.670Z,86.37
2018-05-18T11:36:45.537Z,85.71
2018-05-18T11:37:45.497Z,88.13
2018-05-18T11:38:45.488Z,83.36
2018-05-18T11:39:45.452Z,84.17
2018-05-18T11:40:45.406Z,85.32
2018-05-18T11:41:45.366Z,86.99
2018-05-18T11:42:45.349Z,85.84
2018-05-18T11:43:45.467Z,82.92
2018-05-18T11:44:45.286Z,84.06
2018-05-18T11:45:45.266Z,85.02
2018-05-18T11:46:45.253Z,84.26
2018-05-18T11:47:45.204Z,82.73
2018-05-18T11:48:45.172Z,83.87
2018-05-18T11:49:45.161Z,83.78
2018-05-18T11:50:45.127Z,83.93
2018-05-18T11:51:45.076Z,83.68
2018-05-18T11:52:45.023Z,83.39
2018-05-18T11:53:44.995Z,82.49
2018-05-18T11:54:45.066Z,83.59
2018-05-18T11:55:44.990Z,83.11
2018-05-18T11:56:44.920Z,82.97
2018-05-18T11:57:44.878Z,84.69
2018-05-18T11:58:44.855Z,82.29
2018-05-18T11:59:44.842Z,81.66
2018-05-18T12:00:44.801Z,82.32
2018-05-18T12:01:44.758Z,79.16
2018-05-18T12:02:44.830Z,77.76
2018-05-18T12:03:44.724Z,79.34
2018-05-18T12:04:44.667Z,76.75
2018-05-18T12:05:44.651Z,74.01
2018-05-18T12:06:44.623Z,75.35
2018-05-18T12:07:44.571Z,74.64
2018-05-18T12:08:44.635Z,76.54
2018-05-18T12:09:44.530Z,79.47
2018-05-18T12:10:44.488Z,82.00
2018-05-18T12:11:44.494Z,80.81
2018-05-18T12:12:44.440Z,82.29
2018-05-18T12:13:44.415Z,83.44
2018-05-18T12:14:44.435Z,81.23
2018-05-18T12:15:44.377Z,81.90
2018-05-18T12:16:44.335Z,83.20
2018-05-18T12:17:44.326Z,82.59
2018-05-18T12:18:44.262Z,82.82
2018-05-18T12:19:44.239Z,83.39
2018-05-18T12:20:44.202Z,84.22
2018-05-18T12:21:44.167Z,82.63
2018-05-18T12:22:44.178Z,83.92
2018-05-18T12:23:44.113Z,82.34
2018-05-18T12:24:44.121Z,81.71
2018-05-18T12:25:44.056Z,83.49
2018-05-18T12:26:44.126Z,82.63
2018-05-18T12:27:44.000Z,82.01
2018-05-18T12:28:43.970Z,81.82
2018-05-18T12:29:43.972Z,81.48
2018-05-18T12:30:43.928Z,82.06
2018-05-18T12:31:43.924Z,81.08
2018-05-18T12:32:43.876Z,79.22
2018-05-18T12:33:43.848Z,80.08
2018-05-18T12:34:43.797Z,79.22
2018-05-18T12:35:43.784Z,82.71
2018-05-18T12:36:43.748Z,81.66
2018-05-18T12:37:43.719Z,78.64
2018-05-18T12:38:43.672Z,79.34
2018-05-18T12:39:43.661Z,76.79
2018-05-18T12:40:43.651Z,75.35
2018-05-18T12:41:43.620Z,74.41
2018-05-18T12:42:43.756Z,76.10
2018-05-18T12:43:43.550Z,79.22
2018-05-18T12:44:43.570Z,81.18
2018-05-18T12:45:43.515Z,82.67
2018-05-18T12:46:43.468Z,80.47
2018-05-18T12:47:43.438Z,78.88
2018-05-18T12:48:43.412Z,81.43
2018-05-18T12:49:43.407Z,82.85
2018-05-18T12:50:43.353Z,80.99
2018-05-18T12:51:43.323Z,80.26